Time;durP1;ratioP1;P1;durP2;ratioP2;P2;SDS_P1;SDS_P2;PMS_P1;PMS_P2;Temp;Humidity;BMP_temperature;BMP_pressure;BME280_temperature;BME280_humidity;BME280_pressure;Samples;Min_cycle;Max_cycle;Signal;HPM_P1;HPM_P2
2022/10/24 00:00:28;;;;;;;;;;;;;;;19.32;47.45;95861.72;6125564;19;1827;-65
2022/10/24 00:02:34;;;;;;;;;;;;;;;19.32;47.85;95864.41;6125368;19;1740;-65
2022/10/24 00:04:37;;;;;;;;;;;;;;;19.32;47.54;95864.41;6108734;19;1532;-65
2022/10/24 00:06:42;;;;;;;;;;;;;;;19.31;47.57;95849.41;6124138;19;1859;-66
2022/10/24 00:08:45;;;;;;;;;;;;;;;19.31;47.86;95857.41;6120266;19;1109;-66
2022/10/24 00:10:49;;;;;;;;;;;;;;;19.31;47.56;95862.72;6124316;19;2052;-66
2022/10/24 00:12:54;;;;;;;;;;;;;;;19.32;47.82;95859.06;6122794;19;950;-66
2022/10/24 00:14:58;;;;;;;;;;;;;;;19.31;47.69;95856.56;6112720;19;1820;-65
2022/10/24 00:17:01;;;;;;;;;;;;;;;19.31;47.74;95854.72;6113607;19;1839;-66
2022/10/24 00:19:07;;;;;;;;;;;;;;;19.32;47.62;95859.06;6126132;19;1845;-66
2022/10/24 00:21:11;;;;;;;;;;;;;;;19.32;47.44;95852.88;6123498;19;1471;-66
2022/10/24 00:23:15;;;;;;;;;;;;;;;19.31;47.31;95852.06;6121073;19;1116;-66
2022/10/24 00:25:18;;;;;;;;;;;;;;;19.32;47.56;95853.75;6122973;19;1852;-66
2022/10/24 00:27:22;;;;;;;;;;;;;;;19.32;47.80;95858.22;6105444;19;1049;-66
2022/10/24 00:29:26;;;;;;;;;;;;;;;19.30;47.91;95847.75;6121559;19;1049;-66
2022/10/24 00:31:29;;;;;;;;;;;;;;;19.32;47.82;95847.56;6125108;19;1730;-66
2022/10/24 00:33:32;;;;;;;;;;;;;;;19.33;47.80;95846.56;6122810;19;1918;-66
2022/10/24 00:35:38;;;;;;;;;;;;;;;19.33;47.51;95847.38;6124027;19;2605;-66
2022/10/24 00:37:42;;;;;;;;;;;;;;;19.33;47.97;95847.38;6120055;19;1815;-70
2022/10/24 00:39:45;;;;;;;;;;;;;;;19.32;47.80;95843.09;6109145;19;1820;-66
2022/10/24 00:41:48;;;;;;;;;;;;;;;19.32;47.48;95840.41;6121478;19;1042;-67
2022/10/24 00:43:52;;;;;;;;;;;;;;;19.34;47.46;95840.22;6122108;19;1590;-67
2022/10/24 00:45:56;;;;;;;;;;;;;;;19.34;47.76;95846.38;6123620;19;1791;-67
2022/10/24 00:48:00;;;;;;;;;;;;;;;19.33;47.35;95839.41;6123199;19;1832;-67
2022/10/24 00:50:06;;;;;;;;;;;;;;;19.34;47.44;95840.22;6107290;19;1851;-68
2022/10/24 00:52:13;;;;;;;;;;;;;;;19.34;47.54;95842.88;6121522;19;1735;-67
2022/10/24 00:54:17;;;;;;;;;;;;;;;19.33;47.72;95850.06;6121076;19;2053;-68
2022/10/24 00:56:21;;;;;;;;;;;;;;;19.33;47.63;95844.72;6121299;19;1530;-67
2022/10/24 00:58:27;;;;;;;;;;;;;;;19.33;47.66;95844.72;6122039;19;1763;-67
2022/10/24 01:00:32;;;;;;;;;;;;;;;19.33;47.29;95844.72;6120585;19;1782;-67
2022/10/24 01:02:35;;;;;;;;;;;;;;;19.33;47.46;95850.06;6106841;19;2007;-67
2022/10/24 01:04:38;;;;;;;;;;;;;;;19.33;47.64;95842.06;6122006;19;1746;-67
2022/10/24 01:06:58;;;;;;;;;;;;;;;19.35;47.54;95847.19;6121872;19;1924;-67
2022/10/24 01:09:19;;;;;;;;;;;;;;;19.33;47.23;95847.38;6120213;19;1979;-67
2022/10/24 01:11:30;;;;;;;;;;;;;;;19.37;47.34;95850.50;6122453;19;1806;-66
2022/10/24 01:13:40;;;;;;;;;;;;;;;19.36;47.65;95851.53;6104733;19;1754;-67
2022/10/24 01:15:47;;;;;;;;;;;;;;;19.35;47.74;95855.19;6121532;19;1882;-66
2022/10/24 01:17:55;;;;;;;;;;;;;;;19.33;47.59;95852.72;6122451;19;1821;-67
2022/10/24 01:20:09;;;;;;;;;;;;;;;19.34;47.40;95853.53;6120223;19;1057;-66
2022/10/24 01:22:15;;;;;;;;;;;;;;;19.36;47.44;95854.19;6122712;19;1843;-66
2022/10/24 01:24:30;;;;;;;;;;;;;;;19.35;47.52;95853.38;6106952;19;1732;-66
2022/10/24 01:26:41;;;;;;;;;;;;;;;19.35;47.87;95848.03;6120017;19;1656;-66
2022/10/24 01:28:51;;;;;;;;;;;;;;;19.35;47.72;95847.19;6120745;19;1670;-66
2022/10/24 01:31:02;;;;;;;;;;;;;;;19.36;47.51;95854.19;6121901;19;1842;-64
2022/10/24 01:33:07;;;;;;;;;;;;;;;19.35;47.56;95852.50;6123020;19;1744;-66
2022/10/24 01:35:19;;;;;;;;;;;;;;;19.34;47.86;95857.03;6113360;19;2085;-65
2022/10/24 01:37:25;;;;;;;;;;;;;;;19.34;47.73;95851.69;6114714;19;1911;-65
2022/10/24 01:39:30;;;;;;;;;;;;;;;19.34;47.71;95850.88;6119858;19;1823;-65
2022/10/24 01:41:34;;;;;;;;;;;;;;;19.35;47.63;95847.19;6123307;19;1548;-65
2022/10/24 01:43:41;;;;;;;;;;;;;;;19.36;47.39;95865.69;6121220;19;1595;-64
2022/10/24 01:45:47;;;;;;;;;;;;;;;19.39;47.66;95849.31;6122104;19;1420;-65
2022/10/24 01:47:56;;;;;;;;;;;;;;;19.40;47.32;95847.47;6104546;19;2013;-65
2022/10/24 01:50:01;;;;;;;;;;;;;;;19.41;47.34;95847.31;6122408;19;1667;-64
2022/10/24 01:52:06;;;;;;;;;;;;;;;19.43;47.44;95850.63;6122575;19;1943;-65
2022/10/24 01:54:10;;;;;;;;;;;;;;;19.43;47.11;95845.28;6122152;19;1543;-65
2022/10/24 01:56:14;;;;;;;;;;;;;;;19.42;47.38;95850.78;6123511;19;1853;-66
2022/10/24 01:58:17;;;;;;;;;;;;;;;19.41;47.28;95849.16;6109967;19;1530;-65
2022/10/24 02:00:22;;;;;;;;;;;;;;;19.40;47.71;95845.63;6124840;19;2030;-65
2022/10/24 02:02:27;;;;;;;;;;;;;;;19.39;47.63;95848.50;6125469;19;1821;-65
2022/10/24 02:04:34;;;;;;;;;;;;;;;19.38;47.41;95847.66;6125638;19;1013;-65
2022/10/24 02:06:39;;;;;;;;;;;;;;;19.37;47.51;95835.34;6125428;19;1573;-64
2022/10/24 02:08:44;;;;;;;;;;;;;;;19.37;47.53;95840.66;6121486;19;1886;-66
2022/10/24 02:10:50;;;;;;;;;;;;;;;19.36;47.71;95844.34;6114257;19;1657;-65
2022/10/24 02:12:55;;;;;;;;;;;;;;;19.37;47.77;95839.84;6128459;19;1595;-66
2022/10/24 02:15:02;;;;;;;;;;;;;;;19.36;47.79;95843.53;6124093;19;1845;-64
2022/10/24 02:17:06;;;;;;;;;;;;;;;19.35;47.86;95845.38;6125740;19;1504;-65
2022/10/24 02:19:09;;;;;;;;;;;;;;;19.35;47.84;95842.72;6124652;19;1128;-65
2022/10/24 02:21:19;;;;;;;;;;;;;;;19.35;47.83;95848.03;6107952;19;1110;-64
2022/10/24 02:23:26;;;;;;;;;;;;;;;19.36;47.46;95844.34;6127916;19;1823;-64
2022/10/24 02:25:33;;;;;;;;;;;;;;;19.35;47.60;95850.72;6125566;19;1018;-64
2022/10/24 02:27:37;;;;;;;;;;;;;;;19.36;47.42;95840.88;6127345;19;1807;-65
2022/10/24 02:29:43;;;;;;;;;;;;;;;19.35;47.47;95842.72;6127443;19;1986;-65
2022/10/24 02:31:50;;;;;;;;;;;;;;;19.34;47.68;95846.38;6125484;19;1753;-66
2022/10/24 02:33:55;;;;;;;;;;;;;;;19.36;47.73;95848.88;6115404;19;2396;-65
2022/10/24 02:36:00;;;;;;;;;;;;;;;19.35;47.91;95848.03;6126701;19;1870;-65
2022/10/24 02:38:09;;;;;;;;;;;;;;;19.36;47.76;95847.03;6124127;19;1354;-65
2022/10/24 02:40:14;;;;;;;;;;;;;;;19.36;47.82;95849.69;6127758;19;1595;-65
2022/10/24 02:42:18;;;;;;;;;;;;;;;19.38;47.53;95842.34;6126182;19;1856;-65
2022/10/24 02:44:22;;;;;;;;;;;;;;;19.39;47.69;95849.31;6106428;19;1946;-65
2022/10/24 02:46:26;;;;;;;;;;;;;;;19.40;47.72;95845.63;6121926;19;2055;-66
2022/10/24 02:48:31;;;;;;;;;;;;;;;19.43;47.46;95847.94;6124129;19;966;-64
2022/10/24 02:50:34;;;;;;;;;;;;;;;19.45;47.66;95847.75;6126919;19;1847;-64
2022/10/24 02:52:38;;;;;;;;;;;;;;;19.37;48.07;95839.84;6126518;19;2125;-66
2022/10/24 02:54:44;;;;;;;;;;;;;;;19.41;47.89;95843.81;6127407;19;2056;-66
2022/10/24 02:56:52;;;;;;;;;;;;;;;19.45;47.91;95839.75;6105448;19;2013;-64
2022/10/24 02:58:55;;;;;;;;;;;;;;;19.47;47.44;95845.75;6122998;19;1437;-65
2022/10/24 03:00:58;;;;;;;;;;;;;;;19.48;47.57;95852.72;6126139;19;1580;-65
2022/10/24 03:03:02;;;;;;;;;;;;;;;19.49;47.72;95845.53;6126612;19;1799;-66
2022/10/24 03:05:05;;;;;;;;;;;;;;;19.49;47.44;95848.19;6126866;19;1785;-64
2022/10/24 03:07:09;;;;;;;;;;;;;;;19.48;47.85;95849.22;6106327;19;1832;-67
2022/10/24 03:09:12;;;;;;;;;;;;;;;19.48;47.46;95835.91;6123209;19;1790;-64
2022/10/24 03:11:18;;;;;;;;;;;;;;;19.44;47.86;95841.59;6127064;19;2006;-66
2022/10/24 03:13:21;;;;;;;;;;;;;;;18.72;44.48;95836.00;6122701;19;1056;-65
2022/10/24 03:15:26;;;;;;;;;;;;;;;18.38;44.17;95839.91;6123601;19;1849;-65
2022/10/24 03:17:29;;;;;;;;;;;;;;;18.23;44.07;95831.84;6126008;19;1687;-65
2022/10/24 03:19:32;;;;;;;;;;;;;;;18.14;43.38;95834.75;6105012;19;1763;-65
2022/10/24 03:21:36;;;;;;;;;;;;;;;18.08;43.28;95838.94;6123902;19;1797;-66
2022/10/24 03:23:39;;;;;;;;;;;;;;;18.03;42.99;95836.78;6122909;19;1084;-65
2022/10/24 03:25:42;;;;;;;;;;;;;;;17.99;42.68;95832.84;6125945;19;1535;-65
2022/10/24 03:27:48;;;;;;;;;;;;;;;17.94;43.04;95837.03;6124125;19;1717;-66
2022/10/24 03:29:52;;;;;;;;;;;;;;;17.88;42.81;95827.91;6116564;19;1801;-65
2022/10/24 03:31:57;;;;;;;;;;;;;;;17.82;42.23;95834.75;6116178;19;1491;-65
2022/10/24 03:34:01;;;;;;;;;;;;;;;17.78;42.40;95829.97;6124765;19;2012;-64
2022/10/24 03:36:04;;;;;;;;;;;;;;;17.77;42.28;95830.97;6122175;19;1865;-65
2022/10/24 03:38:08;;;;;;;;;;;;;;;17.70;42.10;95835.28;6124471;19;1457;-65
2022/10/24 03:40:12;;;;;;;;;;;;;;;17.68;42.13;95834.66;6124549;19;1557;-65
2022/10/24 03:42:15;;;;;;;;;;;;;;;17.60;41.99;95836.31;6104360;19;1772;-64
2022/10/24 03:44:23;;;;;;;;;;;;;;;17.58;41.97;95843.63;6123952;19;1600;-65
2022/10/24 03:46:26;;;;;;;;;;;;;;;17.54;42.25;95837.00;6120145;19;1496;-64
2022/10/24 03:48:30;;;;;;;;;;;;;;;17.62;41.72;95844.97;6123885;19;1727;-65
2022/10/24 03:50:33;;;;;;;;;;;;;;;18.00;42.17;95842.47;6123954;19;1766;-63
2022/10/24 03:52:36;;;;;;;;;;;;;;;18.24;42.29;95840.66;6113956;19;1046;-65
2022/10/24 03:54:40;;;;;;;;;;;;;;;18.43;42.60;95847.34;6115014;19;1729;-62
2022/10/24 03:56:43;;;;;;;;;;;;;;;18.53;42.24;95840.78;6123467;19;1861;-62
2022/10/24 03:58:47;;;;;;;;;;;;;;;18.60;42.50;95832.91;6123853;19;1646;-63
2022/10/24 04:00:55;;;;;;;;;;;;;;;18.67;42.34;95836.53;6123378;19;1810;-63
2022/10/24 04:02:59;;;;;;;;;;;;;;;18.72;42.48;95836.00;6125064;19;1774;-63
2022/10/24 04:05:02;;;;;;;;;;;;;;;18.76;42.42;95838.13;6102409;19;1821;-61
2022/10/24 04:07:06;;;;;;;;;;;;;;;18.32;42.16;95832.63;6124061;19;1992;-63
2022/10/24 04:09:09;;;;;;;;;;;;;;;17.85;41.80;95833.59;6123161;19;1718;-63
2022/10/24 04:11:13;;;;;;;;;;;;;;;17.69;42.21;95834.44;6125431;19;1621;-64
2022/10/24 04:13:17;;;;;;;;;;;;;;;17.59;41.96;95836.50;6123210;19;1699;-64
2022/10/24 04:15:20;;;;;;;;;;;;;;;17.53;42.35;95830.06;6122686;19;2020;-63
2022/10/24 04:17:26;;;;;;;;;;;;;;;17.53;41.95;95824.75;6101832;19;1919;-63
2022/10/24 04:19:30;;;;;;;;;;;;;;;17.45;42.16;95821.28;6120791;19;1875;-64
2022/10/24 04:21:34;;;;;;;;;;;;;;;17.41;42.13;95821.63;6122610;19;1714;-65
2022/10/24 04:23:40;;;;;;;;;;;;;;;17.50;42.05;95822.44;6122730;19;1846;-68
2022/10/24 04:25:43;;;;;;;;;;;;;;;17.41;42.00;95824.28;6121096;19;1484;-69
2022/10/24 04:27:47;;;;;;;;;;;;;;;17.35;42.16;95832.09;6101474;19;1368;-71
2022/10/24 04:29:50;;;;;;;;;;;;;;;17.29;42.10;95832.78;6120598;19;1044;-68
2022/10/24 04:31:54;;;;;;;;;;;;;;;17.24;42.05;95825.31;6121497;19;967;-69
2022/10/24 04:34:00;;;;;;;;;;;;;;;17.26;41.97;95833.97;6121421;19;1024;-68
2022/10/24 04:36:03;;;;;;;;;;;;;;;17.20;42.11;95830.16;6119957;19;1845;-68
2022/10/24 04:38:07;;;;;;;;;;;;;;;17.19;42.17;95836.47;6121503;19;1045;-68
2022/10/24 04:40:10;;;;;;;;;;;;;;;17.16;42.46;95834.16;6102598;19;1128;-68
2022/10/24 04:42:14;;;;;;;;;;;;;;;17.14;42.39;95830.84;6117895;19;1081;-69
2022/10/24 04:44:18;;;;;;;;;;;;;;;17.11;42.42;95833.84;6118573;19;1092;-68
2022/10/24 04:46:21;;;;;;;;;;;;;;;17.09;42.32;95840.31;6118309;19;1049;-69
2022/10/24 04:48:24;;;;;;;;;;;;;;;17.10;42.60;95834.84;6118798;19;1009;-70
2022/10/24 04:50:30;;;;;;;;;;;;;;;17.08;42.66;95844.81;6099778;19;1135;-69
2022/10/24 04:52:34;;;;;;;;;;;;;;;17.07;42.67;95839.66;6117680;19;1069;-73
2022/10/24 04:54:37;;;;;;;;;;;;;;;17.38;42.30;95845.84;6118653;19;1042;-66
2022/10/24 04:56:41;;;;;;;;;;;;;;;17.46;42.91;95850.31;6119654;19;1849;-65
2022/10/24 04:58:44;;;;;;;;;;;;;;;17.57;42.48;95847.28;6120460;19;967;-65
2022/10/24 05:00:49;;;;;;;;;;;;;;;17.61;42.43;95848.63;6120560;19;1834;-65
2022/10/24 05:02:52;;;;;;;;;;;;;;;17.70;42.47;95845.91;6102496;19;1146;-66
2022/10/24 05:04:56;;;;;;;;;;;;;;;17.71;42.63;95851.06;6116738;19;1419;-66
2022/10/24 05:07:02;;;;;;;;;;;;;;;17.69;42.61;95854.88;6118487;19;1326;-66
2022/10/24 05:09:05;;;;;;;;;;;;;;;17.72;42.46;95851.88;6120183;19;1029;-66
2022/10/24 05:11:10;;;;;;;;;;;;;;;17.73;42.27;95853.56;6120251;19;1432;-66
2022/10/24 05:13:13;;;;;;;;;;;;;;;17.74;42.30;95848.09;6101811;19;1327;-68
2022/10/24 05:15:17;;;;;;;;;;;;;;;17.76;42.28;95853.25;6120088;19;1705;-66
2022/10/24 05:17:20;;;;;;;;;;;;;;;17.75;42.72;95856.88;6118808;19;1858;-66
2022/10/24 05:19:24;;;;;;;;;;;;;;;17.76;42.26;95861.22;6119323;19;1037;-66
2022/10/24 05:21:27;;;;;;;;;;;;;;;17.72;42.47;95857.19;6119997;19;1044;-66
2022/10/24 05:23:33;;;;;;;;;;;;;;;17.72;42.65;95860.69;6120159;19;1021;-66
2022/10/24 05:25:37;;;;;;;;;;;;;;;17.79;42.65;95860.88;6102577;19;1768;-66
2022/10/24 05:27:42;;;;;;;;;;;;;;;17.75;42.60;95863.03;6119556;19;1036;-66
2022/10/24 05:29:45;;;;;;;;;;;;;;;17.72;42.58;95852.72;6119189;19;1144;-66
2022/10/24 05:31:49;;;;;;;;;;;;;;;17.73;42.65;95856.22;6120428;19;1029;-66
2022/10/24 05:33:52;;;;;;;;;;;;;;;17.74;42.71;95856.06;6119436;19;1064;-66
2022/10/24 05:35:55;;;;;;;;;;;;;;;17.76;42.84;95866.53;6101460;19;1403;-66
2022/10/24 05:37:58;;;;;;;;;;;;;;;17.77;42.67;95858.38;6117865;19;1829;-66
2022/10/24 05:40:05;;;;;;;;;;;;;;;17.81;42.71;95864.16;6119346;19;1018;-66
2022/10/24 05:42:09;;;;;;;;;;;;;;;17.85;42.38;95854.84;6119365;19;962;-66
2022/10/24 05:44:13;;;;;;;;;;;;;;;17.91;42.72;95848.84;6119779;19;1258;-68
2022/10/24 05:46:17;;;;;;;;;;;;;;;18.16;42.53;95851.38;6119702;19;1049;-67
2022/10/24 05:48:20;;;;;;;;;;;;;;;18.29;42.57;95851.59;6103983;19;1068;-67
2022/10/24 05:50:25;;;;;;;;;;;;;;;18.37;42.77;95859.53;6118336;19;1092;-66
2022/10/24 05:52:28;;;;;;;;;;;;;;;18.41;42.20;95863.50;6119681;19;958;-66
2022/10/24 05:54:32;;;;;;;;;;;;;;;18.44;42.25;95855.16;6119310;19;1172;-66
2022/10/24 05:56:38;;;;;;;;;;;;;;;18.46;42.42;95858.44;6118409;19;2334;-66
2022/10/24 05:58:41;;;;;;;;;;;;;;;18.48;42.70;95860.94;6102352;19;1199;-67
2022/10/24 06:00:44;;;;;;;;;;;;;;;18.52;42.69;95868.41;6118694;19;1097;-66
2022/10/24 06:02:49;;;;;;;;;;;;;;;18.55;42.44;95873.38;6118963;19;1053;-66
2022/10/24 06:04:54;;;;;;;;;;;;;;;18.57;42.70;95870.53;6117262;19;1385;-66
2022/10/24 06:06:57;;;;;;;;;;;;;;;18.60;42.56;95877.31;6117365;19;1373;-66
2022/10/24 06:09:00;;;;;;;;;;;;;;;18.64;42.92;95884.78;6117157;19;1026;-69
2022/10/24 06:11:04;;;;;;;;;;;;;;;18.66;42.95;95879.31;6103246;19;1168;-67
2022/10/24 06:13:12;;;;;;;;;;;;;;;18.67;43.04;95884.47;6119383;19;1372;-65
2022/10/24 06:15:16;;;;;;;;;;;;;;;18.72;42.71;95889.22;6118615;19;1125;-67
2022/10/24 06:17:19;;;;;;;;;;;;;;;18.74;42.76;95895.22;6117786;19;1873;-65
2022/10/24 06:19:22;;;;;;;;;;;;;;;18.75;42.62;95896.84;6117346;19;1147;-66
2022/10/24 06:21:26;;;;;;;;;;;;;;;18.76;42.44;95890.56;6102022;19;1156;-73
2022/10/24 06:23:30;;;;;;;;;;;;;;;18.78;42.35;95883.22;6118216;19;1124;-61
2022/10/24 06:25:33;;;;;;;;;;;;;;;18.80;42.38;95886.50;6117923;19;1257;-63
2022/10/24 06:27:36;;;;;;;;;;;;;;;18.81;42.62;95884.66;6118084;19;1118;-61
2022/10/24 06:29:42;;;;;;;;;;;;;;;18.81;42.89;95879.34;6118052;19;970;-61
2022/10/24 06:31:45;;;;;;;;;;;;;;;18.82;42.72;95884.50;6115183;19;1041;-62
2022/10/24 06:33:49;;;;;;;;;;;;;;;18.83;43.21;95896.81;6101430;19;1425;-60
2022/10/24 06:35:52;;;;;;;;;;;;;;;18.84;43.30;95893.16;6117735;19;1014;-62
2022/10/24 06:37:55;;;;;;;;;;;;;;;18.86;43.38;95896.44;6116816;19;1838;-60
2022/10/24 06:39:59;;;;;;;;;;;;;;;18.86;43.39;95904.44;6117829;19;954;-60
2022/10/24 06:42:03;;;;;;;;;;;;;;;18.87;42.87;95897.28;6119737;19;1038;-61
2022/10/24 06:44:06;;;;;;;;;;;;;;;18.88;42.68;95904.25;6102875;19;1326;-61
2022/10/24 06:46:14;;;;;;;;;;;;;;;18.87;42.64;95898.13;6123059;19;1120;-62
2022/10/24 06:48:17;;;;;;;;;;;;;;;18.88;42.30;95899.75;6123251;19;1060;-62
2022/10/24 06:50:21;;;;;;;;;;;;;;;18.90;42.60;95897.75;6123058;19;1113;-61
2022/10/24 06:52:25;;;;;;;;;;;;;;;18.91;42.33;95910.06;6123349;19;1058;-63
2022/10/24 06:54:29;;;;;;;;;;;;;;;18.90;42.70;95912.91;6120057;19;1004;-64
2022/10/24 06:56:33;;;;;;;;;;;;;;;18.90;42.58;95918.25;6108268;19;1675;-63
2022/10/24 06:58:38;;;;;;;;;;;;;;;18.90;42.96;95905.75;6121415;19;1845;-63
2022/10/24 07:00:41;;;;;;;;;;;;;;;18.92;43.01;95910.88;6122778;19;1053;-60
2022/10/24 07:02:47;;;;;;;;;;;;;;;18.92;42.83;95911.72;6122874;19;1013;-60
2022/10/24 07:04:51;;;;;;;;;;;;;;;18.93;43.24;95908.03;6123135;19;1042;-60
2022/10/24 07:06:54;;;;;;;;;;;;;;;18.92;43.37;95906.41;6099305;19;1313;-61
2022/10/24 07:08:59;;;;;;;;;;;;;;;18.94;43.22;95909.69;6121014;19;1076;-60
2022/10/24 07:11:02;;;;;;;;;;;;;;;18.94;43.08;95904.38;6121891;19;1034;-60
2022/10/24 07:13:05;;;;;;;;;;;;;;;18.93;43.19;95905.38;6123638;19;963;-60
2022/10/24 07:15:09;;;;;;;;;;;;;;;18.92;43.66;95905.56;6122760;19;1061;-60
2022/10/24 07:17:12;;;;;;;;;;;;;;;18.92;43.67;95909.06;6118792;19;1858;-60
2022/10/24 07:19:18;;;;;;;;;;;;;;;18.94;43.76;95909.69;6106936;19;1590;-59
2022/10/24 07:21:22;;;;;;;;;;;;;;;18.93;43.85;95908.03;6122683;19;1045;-60
2022/10/24 07:23:25;;;;;;;;;;;;;;;18.94;43.62;95904.38;6122925;19;1030;-61
2022/10/24 07:25:30;;;;;;;;;;;;;;;18.94;43.87;95904.38;6121651;19;1061;-60
2022/10/24 07:27:33;;;;;;;;;;;;;;;18.95;43.90;95895.38;6122211;19;1038;-60
2022/10/24 07:29:39;;;;;;;;;;;;;;;18.96;43.96;95893.53;6101485;19;1203;-61
2022/10/24 07:31:43;;;;;;;;;;;;;;;18.96;43.83;95898.88;6119826;19;1444;-60
2022/10/24 07:33:46;;;;;;;;;;;;;;;18.96;44.00;95897.03;6121382;19;1057;-61
2022/10/24 07:35:52;;;;;;;;;;;;;;;18.97;43.98;95904.00;6122144;19;1054;-59
2022/10/24 07:37:55;;;;;;;;;;;;;;;18.99;43.58;95902.00;6121186;19;1865;-60
2022/10/24 07:39:58;;;;;;;;;;;;;;;19.00;43.82;95898.31;6115307;19;1247;-60
2022/10/24 07:42:02;;;;;;;;;;;;;;;19.02;43.97;95900.00;6109809;19;1142;-60
2022/10/24 07:44:05;;;;;;;;;;;;;;;19.02;44.04;95894.66;6121961;19;1240;-61
2022/10/24 07:46:09;;;;;;;;;;;;;;;19.02;43.64;95903.47;6122205;19;1026;-60
2022/10/24 07:48:12;;;;;;;;;;;;;;;19.04;44.02;95892.66;6121703;19;1021;-60
2022/10/24 07:50:17;;;;;;;;;;;;;;;19.04;43.81;95903.31;6121790;19;1037;-60
2022/10/24 07:52:23;;;;;;;;;;;;;;;19.04;43.70;95897.97;6100073;19;1296;-59
2022/10/24 07:54:27;;;;;;;;;;;;;;;19.04;43.74;95903.31;6119157;19;1050;-60
2022/10/24 07:56:30;;;;;;;;;;;;;;;19.04;43.84;95904.13;6121736;19;1093;-59
2022/10/24 07:58:34;;;;;;;;;;;;;;;19.05;43.72;95900.44;6120589;19;1857;-66
2022/10/24 08:00:38;;;;;;;;;;;;;;;19.07;43.90;95898.44;6121896;19;1181;-60
2022/10/24 08:02:41;;;;;;;;;;;;;;;19.08;43.81;95896.59;6113536;19;1246;-60
2022/10/24 08:04:45;;;;;;;;;;;;;;;19.07;44.03;95893.13;6110298;19;1105;-61
2022/10/24 08:06:48;;;;;;;;;;;;;;;19.08;44.21;95893.94;6119835;19;1358;-60
2022/10/24 08:08:54;;;;;;;;;;;;;;;19.08;44.14;95894.75;6119335;19;1449;-60
2022/10/24 08:10:57;;;;;;;;;;;;;;;19.07;43.89;95887.78;6120572;19;1073;-60
2022/10/24 08:13:01;;;;;;;;;;;;;;;19.07;44.20;95895.78;6121459;19;966;-60
2022/10/24 08:15:04;;;;;;;;;;;;;;;19.09;44.31;95887.59;6100050;19;1268;-60
2022/10/24 08:17:08;;;;;;;;;;;;;;;19.09;44.14;95890.25;6121011;19;1334;-59
2022/10/24 08:19:13;;;;;;;;;;;;;;;18.79;44.18;95887.53;6120773;19;1096;-60
2022/10/24 08:21:18;;;;;;;;;;;;;;;18.48;43.83;95890.22;6120882;19;1187;-60
2022/10/24 08:23:21;;;;;;;;;;;;;;;18.36;44.21;95887.16;6120520;19;1092;-60
2022/10/24 08:25:27;;;;;;;;;;;;;;;18.28;43.65;95889.84;6112608;19;1360;-61
2022/10/24 08:27:31;;;;;;;;;;;;;;;18.23;44.05;95884.22;6109400;19;1119;-60
2022/10/24 08:29:34;;;;;;;;;;;;;;;18.19;43.67;95875.78;6120611;19;1113;-60
2022/10/24 08:31:37;;;;;;;;;;;;;;;18.17;43.78;95883.09;6119978;19;1140;-60
2022/10/24 08:33:41;;;;;;;;;;;;;;;18.17;44.09;95880.44;6119978;19;1127;-60
2022/10/24 08:35:45;;;;;;;;;;;;;;;18.18;43.73;95875.94;6121075;19;1032;-59
2022/10/24 08:37:48;;;;;;;;;;;;;;;18.18;43.71;95881.25;6098921;19;1841;-62
2022/10/24 08:39:54;;;;;;;;;;;;;;;18.16;43.96;95867.31;6120103;19;1040;-59
2022/10/24 08:42:02;;;;;;;;;;;;;;;18.18;43.68;95875.94;6120651;19;1026;-60
2022/10/24 08:44:08;;;;;;;;;;;;;;;18.14;43.65;95869.31;6120693;19;970;-60
2022/10/24 08:46:19;;;;;;;;;;;;;;;18.38;43.63;95857.69;6119963;19;1063;-60
2022/10/24 08:48:26;;;;;;;;;;;;;;;18.61;43.67;95863.84;6110191;19;1157;-60
2022/10/24 08:50:32;;;;;;;;;;;;;;;18.71;43.25;95859.13;6109422;19;1424;-61
2022/10/24 08:52:40;;;;;;;;;;;;;;;18.76;43.55;95854.09;6120379;19;1025;-59
2022/10/24 08:54:44;;;;;;;;;;;;;;;18.82;43.46;95857.06;6120278;19;1368;-59
2022/10/24 08:56:48;;;;;;;;;;;;;;;18.85;43.12;95854.84;6120112;19;1064;-59
2022/10/24 08:58:54;;;;;;;;;;;;;;;18.82;43.23;95852.56;6118783;19;1862;-59
2022/10/24 09:00:59;;;;;;;;;;;;;;;18.87;43.65;95844.03;6098866;19;1112;-61
2022/10/24 09:03:04;;;;;;;;;;;;;;;18.90;43.28;95849.00;6119202;19;1021;-59
2022/10/24 09:05:19;;;;;;;;;;;;;;;18.91;43.48;95851.47;6118572;19;1295;-61
2022/10/24 09:07:23;;;;;;;;;;;;;;;18.93;43.39;95845.97;6118936;19;1136;-59
2022/10/24 09:09:30;;;;;;;;;;;;;;;18.94;43.51;95842.28;6119141;19;1053;-60
2022/10/24 09:11:38;;;;;;;;;;;;;;;18.94;43.48;95835.13;6099637;19;1307;-62
2022/10/24 09:13:41;;;;;;;;;;;;;;;18.97;43.48;95840.09;6119166;19;1014;-60
2022/10/24 09:15:48;;;;;;;;;;;;;;;18.97;43.84;95840.09;6119435;19;1025;-59
2022/10/24 09:17:52;;;;;;;;;;;;;;;18.97;43.82;95837.41;6118969;19;1850;-60
2022/10/24 09:19:56;;;;;;;;;;;;;;;18.98;43.51;95836.44;6119771;19;1044;-61
2022/10/24 09:22:00;;;;;;;;;;;;;;;18.99;43.54;95834.59;6119279;19;1068;-59
2022/10/24 09:24:04;;;;;;;;;;;;;;;18.99;43.52;95835.41;6099742;19;1253;-60
2022/10/24 09:26:10;;;;;;;;;;;;;;;19.02;43.86;95836.06;6119128;19;1112;-59
2022/10/24 09:28:14;;;;;;;;;;;;;;;19.02;44.03;95836.06;6119360;19;1061;-63
2022/10/24 09:30:19;;;;;;;;;;;;;;;19.02;44.13;95831.56;6119405;19;1068;-60
2022/10/24 09:32:29;;;;;;;;;;;;;;;19.02;43.82;95825.41;6118529;19;966;-62
2022/10/24 09:34:33;;;;;;;;;;;;;;;19.03;43.87;95827.88;6097584;19;1428;-59
2022/10/24 09:36:36;;;;;;;;;;;;;;;19.03;44.07;95827.06;6118775;19;1050;-59
2022/10/24 09:38:41;;;;;;;;;;;;;;;19.03;44.28;95827.88;6117562;19;1838;-59
2022/10/24 09:40:51;;;;;;;;;;;;;;;19.04;44.24;95834.88;6119518;19;1024;-60
2022/10/24 09:42:57;;;;;;;;;;;;;;;19.05;43.91;95820.53;6118943;19;1049;-61
2022/10/24 09:45:01;;;;;;;;;;;;;;;19.04;44.20;95823.41;6108751;19;1056;-59
2022/10/24 09:47:05;;;;;;;;;;;;;;;19.05;44.27;95820.53;6107116;19;1194;-61
2022/10/24 09:49:18;;;;;;;;;;;;;;;19.04;44.41;95818.91;6118820;19;1036;-61
2022/10/24 09:51:24;;;;;;;;;;;;;;;19.05;44.25;95815.22;6118859;19;1158;-61
2022/10/24 09:53:29;;;;;;;;;;;;;;;19.06;44.37;95818.69;6118049;19;1028;-60
2022/10/24 09:55:33;;;;;;;;;;;;;;;19.06;44.70;95819.53;6118492;19;1109;-61
2022/10/24 09:57:40;;;;;;;;;;;;;;;19.07;44.31;95817.72;6097164;19;1189;-60
2022/10/24 09:59:45;;;;;;;;;;;;;;;19.06;44.49;95816.84;6116981;19;1838;-59
2022/10/24 10:01:48;;;;;;;;;;;;;;;19.06;44.62;95816.03;6118327;19;1021;-59
2022/10/24 10:04:02;;;;;;;;;;;;;;;19.07;44.45;95821.19;6118047;19;954;-60
2022/10/24 10:06:17;;;;;;;;;;;;;;;19.07;44.42;95812.38;6117459;19;1314;-61
2022/10/24 10:08:21;;;;;;;;;;;;;;;19.10;44.72;95812.00;6095462;19;1189;-62
2022/10/24 10:10:29;;;;;;;;;;;;;;;19.11;44.66;95808.34;6117710;19;1065;-60
2022/10/24 10:12:33;;;;;;;;;;;;;;;19.11;44.80;95806.50;6118323;19;1513;-59
2022/10/24 10:14:42;;;;;;;;;;;;;;;19.12;44.46;95807.31;6117823;19;1121;-60
2022/10/24 10:16:45;;;;;;;;;;;;;;;19.13;44.88;95801.81;6119808;19;959;-60
2022/10/24 10:18:49;;;;;;;;;;;;;;;19.12;44.51;95797.50;6122981;19;1850;-60
2022/10/24 10:21:01;;;;;;;;;;;;;;;19.13;44.88;95798.31;6106064;19;1388;-62
2022/10/24 10:23:24;;;;;;;;;;;;;;;19.13;44.90;95796.47;6121034;19;1425;-62
2022/10/24 10:25:32;;;;;;;;;;;;;;;19.14;44.73;95791.97;6124195;19;1551;-60
2022/10/24 10:27:37;;;;;;;;;;;;;;;19.14;44.91;95787.47;6124070;19;1073;-60
2022/10/24 10:29:40;;;;;;;;;;;;;;;19.15;44.56;95782.97;6123950;19;1077;-64
2022/10/24 10:31:45;;;;;;;;;;;;;;;19.15;44.95;95783.81;6102954;19;1515;-59
2022/10/24 10:33:53;;;;;;;;;;;;;;;19.16;45.00;95779.31;6124199;19;1072;-60
2022/10/24 10:36:00;;;;;;;;;;;;;;;19.16;44.92;95768.66;6123762;19;1053;-60
2022/10/24 10:38:09;;;;;;;;;;;;;;;19.16;45.05;95776.66;6122976;19;1841;-61
2022/10/24 10:40:22;;;;;;;;;;;;;;;19.17;45.06;95775.63;6124265;19;1521;-59
2022/10/24 10:42:29;;;;;;;;;;;;;;;19.16;45.00;95768.66;6103145;19;1153;-59
2022/10/24 10:44:39;;;;;;;;;;;;;;;19.17;45.04;95768.44;6123567;19;1016;-60
2022/10/24 10:46:46;;;;;;;;;;;;;;;19.18;45.16;95761.31;6123713;19;1028;-60
2022/10/24 10:48:55;;;;;;;;;;;;;;;19.18;45.24;95755.97;6123596;19;1112;-60
2022/10/24 10:51:02;;;;;;;;;;;;;;;19.18;44.91;95761.31;6124005;19;1030;-61
2022/10/24 10:53:12;;;;;;;;;;;;;;;19.18;45.13;95751.47;6112424;19;1450;-61
2022/10/24 10:55:26;;;;;;;;;;;;;;;19.19;44.91;95753.13;6113085;19;1591;-61
2022/10/24 10:57:32;;;;;;;;;;;;;;;19.19;45.29;95752.28;6123287;19;1093;-62
2022/10/24 10:59:41;;;;;;;;;;;;;;;19.19;44.96;95746.97;6121352;19;1853;-60